Teyateyaneng, Lesotho
Current Conditions -  °F | °C
As of 1:00 AM on Friday 19 Dec 2014 (Local Time) from FABL Reporting Station
NA  
Wind Chill: 68°   Ceiling: NA
Heat Index: 68°   Visibility: 6mi
Dew Point: 55°   Wind: 5mph
Humidity: 64%   Direction: 220°SW
Pressure: 30.03"   Gusts: NA
Location:  29.15°S, 27.74°E
Report Text: FABL 182300Z AUTO 22004KT 9999 ////// 20/13 Q1017
Loading
Personal Weather Stations






























Interactive Weather Map New forecast layout! Learn more

10-Day Weather Forecast

Advertisements
Track Severe Weather on mobile